sensor_id;sensor_type;location;lat;lon;timestamp;temperature;humidity
69031;DHT22;56083;48.774;8.942;2022-07-25T00:00:34;18.90;99.90
69031;DHT22;56083;48.774;8.942;2022-07-25T00:03:00;18.90;99.90
69031;DHT22;56083;48.774;8.942;2022-07-25T00:05:26;18.80;99.90
69031;DHT22;56083;48.774;8.942;2022-07-25T00:07:51;18.80;99.90
69031;DHT22;56083;48.774;8.942;2022-07-25T00:10:17;18.70;99.90
69031;DHT22;56083;48.774;8.942;2022-07-25T00:12:43;18.70;99.90
69031;DHT22;56083;48.774;8.942;2022-07-25T00:15:09;18.60;99.90
69031;DHT22;56083;48.774;8.942;2022-07-25T00:17:35;18.60;99.90
69031;DHT22;56083;48.774;8.942;2022-07-25T00:20:02;18.60;99.90
69031;DHT22;56083;48.774;8.942;2022-07-25T00:22:28;18.60;99.90
69031;DHT22;56083;48.774;8.942;2022-07-25T00:24:53;18.60;99.90
69031;DHT22;56083;48.774;8.942;2022-07-25T00:27:19;18.60;99.90
69031;DHT22;56083;48.774;8.942;2022-07-25T00:29:45;18.60;99.90
69031;DHT22;56083;48.774;8.942;2022-07-25T00:32:11;18.60;99.90
69031;DHT22;56083;48.774;8.942;2022-07-25T00:34:37;18.50;99.90
69031;DHT22;56083;48.774;8.942;2022-07-25T00:37:03;18.50;99.90
69031;DHT22;56083;48.774;8.942;2022-07-25T00:39:28;18.50;99.90
69031;DHT22;56083;48.774;8.942;2022-07-25T00:41:54;18.40;99.90
69031;DHT22;56083;48.774;8.942;2022-07-25T00:44:28;18.40;99.90
69031;DHT22;56083;48.774;8.942;2022-07-25T00:46:54;18.40;99.90
69031;DHT22;56083;48.774;8.942;2022-07-25T00:49:20;18.30;99.90
69031;DHT22;56083;48.774;8.942;2022-07-25T00:51:46;18.40;99.90
69031;DHT22;56083;48.774;8.942;2022-07-25T00:54:12;18.40;99.90
69031;DHT22;56083;48.774;8.942;2022-07-25T00:56:38;18.30;99.90
69031;DHT22;56083;48.774;8.942;2022-07-25T00:59:04;18.30;99.90
69031;DHT22;56083;48.774;8.942;2022-07-25T01:01:30;18.30;99.90
69031;DHT22;56083;48.774;8.942;2022-07-25T01:03:56;18.20;99.90
69031;DHT22;56083;48.774;8.942;2022-07-25T01:06:22;18.30;99.90
69031;DHT22;56083;48.774;8.942;2022-07-25T01:08:48;18.30;99.90
69031;DHT22;56083;48.774;8.942;2022-07-25T01:11:14;18.20;99.90
69031;DHT22;56083;48.774;8.942;2022-07-25T01:13:40;18.20;99.90
69031;DHT22;56083;48.774;8.942;2022-07-25T01:16:06;18.20;99.90
69031;DHT22;56083;48.774;8.942;2022-07-25T01:18:32;18.10;99.90
69031;DHT22;56083;48.774;8.942;2022-07-25T01:20:59;18.10;99.90
69031;DHT22;56083;48.774;8.942;2022-07-25T01:23:26;18.00;99.90
69031;DHT22;56083;48.774;8.942;2022-07-25T01:25:52;18.00;99.90
69031;DHT22;56083;48.774;8.942;2022-07-25T01:28:17;17.90;99.90
69031;DHT22;56083;48.774;8.942;2022-07-25T01:30:43;17.80;99.90
69031;DHT22;56083;48.774;8.942;2022-07-25T01:33:13;17.70;99.90
69031;DHT22;56083;48.774;8.942;2022-07-25T01:35:39;17.70;99.90
69031;DHT22;56083;48.774;8.942;2022-07-25T01:38:05;17.70;99.90
69031;DHT22;56083;48.774;8.942;2022-07-25T01:40:30;17.70;99.90
69031;DHT22;56083;48.774;8.942;2022-07-25T01:42:56;17.70;99.90
69031;DHT22;56083;48.774;8.942;2022-07-25T01:45:22;17.80;99.90
69031;DHT22;56083;48.774;8.942;2022-07-25T01:47:47;17.80;99.90
69031;DHT22;56083;48.774;8.942;2022-07-25T01:50:13;17.80;99.90
69031;DHT22;56083;48.774;8.942;2022-07-25T01:52:38;17.80;99.90
69031;DHT22;56083;48.774;8.942;2022-07-25T01:55:05;17.80;99.90
69031;DHT22;56083;48.774;8.942;2022-07-25T01:57:31;17.80;99.90
69031;DHT22;56083;48.774;8.942;2022-07-25T01:59:56;17.80;99.90
69031;DHT22;56083;48.774;8.942;2022-07-25T02:02:22;17.80;99.90
69031;DHT22;56083;48.774;8.942;2022-07-25T02:04:48;17.90;99.90
69031;DHT22;56083;48.774;8.942;2022-07-25T02:07:14;18.00;99.90
69031;DHT22;56083;48.774;8.942;2022-07-25T02:09:39;18.00;99.90
69031;DHT22;56083;48.774;8.942;2022-07-25T02:12:06;18.00;99.90
69031;DHT22;56083;48.774;8.942;2022-07-25T02:14:32;18.10;99.90
69031;DHT22;56083;48.774;8.942;2022-07-25T02:16:58;18.10;99.90
69031;DHT22;56083;48.774;8.942;2022-07-25T02:19:23;18.10;99.90
69031;DHT22;56083;48.774;8.942;2022-07-25T02:21:49;18.10;99.90
69031;DHT22;56083;48.774;8.942;2022-07-25T02:24:15;18.00;99.90
69031;DHT22;56083;48.774;8.942;2022-07-25T02:26:40;18.00;99.90
69031;DHT22;56083;48.774;8.942;2022-07-25T02:29:06;17.90;99.90
69031;DHT22;56083;48.774;8.942;2022-07-25T02:31:32;17.90;99.90
69031;DHT22;56083;48.774;8.942;2022-07-25T02:33:58;17.80;99.90
69031;DHT22;56083;48.774;8.942;2022-07-25T02:36:23;17.80;99.90
69031;DHT22;56083;48.774;8.942;2022-07-25T02:38:49;17.80;99.90
69031;DHT22;56083;48.774;8.942;2022-07-25T02:41:15;17.80;99.90
69031;DHT22;56083;48.774;8.942;2022-07-25T02:43:40;17.80;99.90
69031;DHT22;56083;48.774;8.942;2022-07-25T02:46:06;17.80;99.90
69031;DHT22;56083;48.774;8.942;2022-07-25T02:48:32;17.70;99.90
69031;DHT22;56083;48.774;8.942;2022-07-25T02:50:57;17.70;99.90
69031;DHT22;56083;48.774;8.942;2022-07-25T02:53:23;17.70;99.90
69031;DHT22;56083;48.774;8.942;2022-07-25T02:55:49;17.70;99.90
69031;DHT22;56083;48.774;8.942;2022-07-25T02:58:14;17.60;99.90
69031;DHT22;56083;48.774;8.942;2022-07-25T03:00:40;17.50;99.90
69031;DHT22;56083;48.774;8.942;2022-07-25T03:03:06;17.50;99.90
69031;DHT22;56083;48.774;8.942;2022-07-25T03:05:31;17.50;99.90
69031;DHT22;56083;48.774;8.942;2022-07-25T03:07:57;17.50;99.90
69031;DHT22;56083;48.774;8.942;2022-07-25T03:10:23;17.50;99.90
69031;DHT22;56083;48.774;8.942;2022-07-25T03:12:48;17.40;99.90
69031;DHT22;56083;48.774;8.942;2022-07-25T03:15:14;17.50;99.90
69031;DHT22;56083;48.774;8.942;2022-07-25T03:17:40;17.40;99.90
69031;DHT22;56083;48.774;8.942;2022-07-25T03:20:07;17.40;99.90
69031;DHT22;56083;48.774;8.942;2022-07-25T03:22:33;17.40;99.90
69031;DHT22;56083;48.774;8.942;2022-07-25T03:24:59;17.40;99.90
69031;DHT22;56083;48.774;8.942;2022-07-25T03:27:25;17.30;99.90
69031;DHT22;56083;48.774;8.942;2022-07-25T03:29:51;17.20;99.90
69031;DHT22;56083;48.774;8.942;2022-07-25T03:32:18;17.20;99.90
69031;DHT22;56083;48.774;8.942;2022-07-25T03:34:44;17.30;99.90
69031;DHT22;56083;48.774;8.942;2022-07-25T03:37:10;17.20;99.90
69031;DHT22;56083;48.774;8.942;2022-07-25T03:39:35;17.20;99.90
69031;DHT22;56083;48.774;8.942;2022-07-25T03:42:01;17.30;99.90
69031;DHT22;56083;48.774;8.942;2022-07-25T03:44:27;17.50;99.90
69031;DHT22;56083;48.774;8.942;2022-07-25T03:46:52;17.60;99.90
69031;DHT22;56083;48.774;8.942;2022-07-25T03:49:18;17.70;99.90
69031;DHT22;56083;48.774;8.942;2022-07-25T03:51:44;17.80;99.90
69031;DHT22;56083;48.774;8.942;2022-07-25T03:54:10;17.80;99.90
69031;DHT22;56083;48.774;8.942;2022-07-25T03:56:39;17.80;99.90
69031;DHT22;56083;48.774;8.942;2022-07-25T03:59:05;17.80;99.90
69031;DHT22;56083;48.774;8.942;2022-07-25T04:01:32;17.80;99.90
69031;DHT22;56083;48.774;8.942;2022-07-25T04:03:58;17.80;99.90
69031;DHT22;56083;48.774;8.942;2022-07-25T04:06:24;17.90;99.90
69031;DHT22;56083;48.774;8.942;2022-07-25T04:08:50;17.90;99.90
69031;DHT22;56083;48.774;8.942;2022-07-25T04:11:16;17.90;99.90
69031;DHT22;56083;48.774;8.942;2022-07-25T04:13:41;17.90;99.90
69031;DHT22;56083;48.774;8.942;2022-07-25T04:16:09;18.00;99.90
69031;DHT22;56083;48.774;8.942;2022-07-25T04:18:35;18.00;99.90
69031;DHT22;56083;48.774;8.942;2022-07-25T04:21:02;18.00;99.90
69031;DHT22;56083;48.774;8.942;2022-07-25T04:23:28;18.00;99.90
69031;DHT22;56083;48.774;8.942;2022-07-25T04:25:55;18.00;99.90
69031;DHT22;56083;48.774;8.942;2022-07-25T04:28:21;18.10;99.90
69031;DHT22;56083;48.774;8.942;2022-07-25T04:30:46;18.00;99.90
69031;DHT22;56083;48.774;8.942;2022-07-25T04:33:12;18.00;99.90
69031;DHT22;56083;48.774;8.942;2022-07-25T04:35:38;18.10;99.90
69031;DHT22;56083;48.774;8.942;2022-07-25T04:38:04;18.20;99.90
69031;DHT22;56083;48.774;8.942;2022-07-25T04:40:30;18.20;99.90
69031;DHT22;56083;48.774;8.942;2022-07-25T04:42:56;18.30;99.90
69031;DHT22;56083;48.774;8.942;2022-07-25T04:45:21;18.40;99.90
69031;DHT22;56083;48.774;8.942;2022-07-25T04:47:48;18.50;99.90
69031;DHT22;56083;48.774;8.942;2022-07-25T04:50:14;18.50;99.90
69031;DHT22;56083;48.774;8.942;2022-07-25T04:52:40;18.60;99.90
69031;DHT22;56083;48.774;8.942;2022-07-25T04:55:06;18.60;99.90
69031;DHT22;56083;48.774;8.942;2022-07-25T04:57:32;18.80;99.90
69031;DHT22;56083;48.774;8.942;2022-07-25T04:59:58;18.90;99.90
69031;DHT22;56083;48.774;8.942;2022-07-25T05:02:24;19.00;99.90
69031;DHT22;56083;48.774;8.942;2022-07-25T05:04:50;19.10;99.90
69031;DHT22;56083;48.774;8.942;2022-07-25T05:07:16;19.20;99.90
69031;DHT22;56083;48.774;8.942;2022-07-25T05:09:42;19.40;99.90
69031;DHT22;56083;48.774;8.942;2022-07-25T05:12:08;19.50;99.90
69031;DHT22;56083;48.774;8.942;2022-07-25T05:14:33;19.60;99.90
69031;DHT22;56083;48.774;8.942;2022-07-25T05:16:59;19.70;99.90
69031;DHT22;56083;48.774;8.942;2022-07-25T05:19:25;19.90;99.90
69031;DHT22;56083;48.774;8.942;2022-07-25T05:21:51;19.90;99.90
69031;DHT22;56083;48.774;8.942;2022-07-25T05:24:16;20.00;99.90
69031;DHT22;56083;48.774;8.942;2022-07-25T05:26:42;20.10;99.90
69031;DHT22;56083;48.774;8.942;2022-07-25T05:29:08;20.20;99.90
69031;DHT22;56083;48.774;8.942;2022-07-25T05:31:35;20.30;99.90
69031;DHT22;56083;48.774;8.942;2022-07-25T05:34:01;20.40;99.90
69031;DHT22;56083;48.774;8.942;2022-07-25T05:36:27;20.50;99.90
69031;DHT22;56083;48.774;8.942;2022-07-25T05:38:53;20.60;99.90
69031;DHT22;56083;48.774;8.942;2022-07-25T05:41:19;20.70;99.90
69031;DHT22;56083;48.774;8.942;2022-07-25T05:43:45;20.80;99.90
69031;DHT22;56083;48.774;8.942;2022-07-25T05:46:12;21.00;99.90
69031;DHT22;56083;48.774;8.942;2022-07-25T05:48:38;21.20;99.90
69031;DHT22;56083;48.774;8.942;2022-07-25T05:51:03;21.30;99.90
69031;DHT22;56083;48.774;8.942;2022-07-25T05:53:29;21.40;99.90
69031;DHT22;56083;48.774;8.942;2022-07-25T05:55:55;21.60;99.90
69031;DHT22;56083;48.774;8.942;2022-07-25T05:58:21;21.70;99.90
69031;DHT22;56083;48.774;8.942;2022-07-25T06:00:47;21.90;99.90
69031;DHT22;56083;48.774;8.942;2022-07-25T06:03:15;22.10;99.90
69031;DHT22;56083;48.774;8.942;2022-07-25T06:05:42;22.20;99.90
69031;DHT22;56083;48.774;8.942;2022-07-25T06:08:08;22.40;99.90
69031;DHT22;56083;48.774;8.942;2022-07-25T06:10:34;22.60;99.90
69031;DHT22;56083;48.774;8.942;2022-07-25T06:12:59;22.80;99.90
69031;DHT22;56083;48.774;8.942;2022-07-25T06:15:25;23.00;99.90
69031;DHT22;56083;48.774;8.942;2022-07-25T06:17:51;23.20;99.90
69031;DHT22;56083;48.774;8.942;2022-07-25T06:20:16;23.40;99.90
69031;DHT22;56083;48.774;8.942;2022-07-25T06:22:42;23.60;99.90
69031;DHT22;56083;48.774;8.942;2022-07-25T06:25:08;23.90;99.90
69031;DHT22;56083;48.774;8.942;2022-07-25T06:27:35;24.10;99.90
69031;DHT22;56083;48.774;8.942;2022-07-25T06:30:03;24.20;99.90
69031;DHT22;56083;48.774;8.942;2022-07-25T06:32:29;24.40;99.90
69031;DHT22;56083;48.774;8.942;2022-07-25T06:34:54;24.50;99.90
69031;DHT22;56083;48.774;8.942;2022-07-25T06:37:20;24.70;99.90
69031;DHT22;56083;48.774;8.942;2022-07-25T06:39:45;24.90;99.90
69031;DHT22;56083;48.774;8.942;2022-07-25T06:42:11;25.00;99.90
69031;DHT22;56083;48.774;8.942;2022-07-25T06:44:37;25.10;99.90
69031;DHT22;56083;48.774;8.942;2022-07-25T06:47:02;25.30;99.90
69031;DHT22;56083;48.774;8.942;2022-07-25T06:49:29;25.60;99.90
69031;DHT22;56083;48.774;8.942;2022-07-25T06:51:55;25.80;99.90
69031;DHT22;56083;48.774;8.942;2022-07-25T06:54:21;26.10;99.90
69031;DHT22;56083;48.774;8.942;2022-07-25T06:56:46;26.40;99.90
69031;DHT22;56083;48.774;8.942;2022-07-25T06:59:12;26.60;99.90
69031;DHT22;56083;48.774;8.942;2022-07-25T07:01:40;26.80;99.90
69031;DHT22;56083;48.774;8.942;2022-07-25T07:04:05;27.00;99.90
69031;DHT22;56083;48.774;8.942;2022-07-25T07:06:31;27.10;99.90
69031;DHT22;56083;48.774;8.942;2022-07-25T07:08:57;27.30;99.90
69031;DHT22;56083;48.774;8.942;2022-07-25T07:11:23;27.50;99.90
69031;DHT22;56083;48.774;8.942;2022-07-25T07:13:48;27.80;99.90
69031;DHT22;56083;48.774;8.942;2022-07-25T07:16:14;28.20;99.90
69031;DHT22;56083;48.774;8.942;2022-07-25T07:18:40;28.50;99.90
69031;DHT22;56083;48.774;8.942;2022-07-25T07:21:06;28.90;99.90
69031;DHT22;56083;48.774;8.942;2022-07-25T07:23:32;29.40;99.90
69031;DHT22;56083;48.774;8.942;2022-07-25T07:25:57;29.60;99.90
69031;DHT22;56083;48.774;8.942;2022-07-25T07:28:23;30.00;99.90
69031;DHT22;56083;48.774;8.942;2022-07-25T07:30:49;30.00;99.90
69031;DHT22;56083;48.774;8.942;2022-07-25T07:33:14;29.80;99.90
69031;DHT22;56083;48.774;8.942;2022-07-25T07:35:43;29.90;99.90
69031;DHT22;56083;48.774;8.942;2022-07-25T07:38:08;30.20;99.90
69031;DHT22;56083;48.774;8.942;2022-07-25T07:40:34;30.40;99.90
69031;DHT22;56083;48.774;8.942;2022-07-25T07:43:00;30.60;99.90
69031;DHT22;56083;48.774;8.942;2022-07-25T07:45:28;30.60;99.90
69031;DHT22;56083;48.774;8.942;2022-07-25T07:47:55;30.80;99.90
69031;DHT22;56083;48.774;8.942;2022-07-25T07:50:25;31.30;99.90
69031;DHT22;56083;48.774;8.942;2022-07-25T07:52:53;31.10;99.90
69031;DHT22;56083;48.774;8.942;2022-07-25T07:55:19;31.20;99.90
69031;DHT22;56083;48.774;8.942;2022-07-25T07:58:04;31.60;99.90
69031;DHT22;56083;48.774;8.942;2022-07-25T08:00:30;32.30;99.90
69031;DHT22;56083;48.774;8.942;2022-07-25T08:02:57;32.60;99.10
69031;DHT22;56083;48.774;8.942;2022-07-25T08:05:29;33.00;97.70
69031;DHT22;56083;48.774;8.942;2022-07-25T08:07:55;34.00;95.60
69031;DHT22;56083;48.774;8.942;2022-07-25T08:10:29;34.60;92.90
69031;DHT22;56083;48.774;8.942;2022-07-25T08:12:55;35.30;90.20
69031;DHT22;56083;48.774;8.942;2022-07-25T08:15:22;35.70;85.70
69031;DHT22;56083;48.774;8.942;2022-07-25T08:17:48;36.60;78.20
69031;DHT22;56083;48.774;8.942;2022-07-25T08:20:18;36.20;75.30
69031;DHT22;56083;48.774;8.942;2022-07-25T08:22:45;36.10;75.00
69031;DHT22;56083;48.774;8.942;2022-07-25T08:25:32;36.40;74.20
69031;DHT22;56083;48.774;8.942;2022-07-25T08:27:58;37.10;69.50
69031;DHT22;56083;48.774;8.942;2022-07-25T08:30:24;37.50;67.70
69031;DHT22;56083;48.774;8.942;2022-07-25T08:32:52;38.40;65.00
69031;DHT22;56083;48.774;8.942;2022-07-25T08:35:19;39.00;59.50
69031;DHT22;56083;48.774;8.942;2022-07-25T08:37:46;39.10;58.20
69031;DHT22;56083;48.774;8.942;2022-07-25T08:40:12;39.10;57.70
69031;DHT22;56083;48.774;8.942;2022-07-25T08:42:39;38.70;56.70
69031;DHT22;56083;48.774;8.942;2022-07-25T08:45:07;38.20;57.60
69031;DHT22;56083;48.774;8.942;2022-07-25T08:47:34;38.40;57.90
69031;DHT22;56083;48.774;8.942;2022-07-25T08:50:06;39.70;56.30
69031;DHT22;56083;48.774;8.942;2022-07-25T08:52:33;39.90;54.40
69031;DHT22;56083;48.774;8.942;2022-07-25T08:55:10;40.30;53.10
69031;DHT22;56083;48.774;8.942;2022-07-25T08:57:39;41.10;50.20
69031;DHT22;56083;48.774;8.942;2022-07-25T09:00:09;41.00;47.80
69031;DHT22;56083;48.774;8.942;2022-07-25T09:02:36;40.80;47.70
69031;DHT22;56083;48.774;8.942;2022-07-25T09:05:02;40.80;47.20
69031;DHT22;56083;48.774;8.942;2022-07-25T09:07:39;41.40;47.70
69031;DHT22;56083;48.774;8.942;2022-07-25T09:10:22;41.90;45.30
69031;DHT22;56083;48.774;8.942;2022-07-25T09:13:00;42.10;46.10
69031;DHT22;56083;48.774;8.942;2022-07-25T09:15:35;42.10;46.40
69031;DHT22;56083;48.774;8.942;2022-07-25T09:18:06;41.20;46.40
69031;DHT22;56083;48.774;8.942;2022-07-25T09:20:49;41.40;46.90
69031;DHT22;56083;48.774;8.942;2022-07-25T09:23:29;41.90;43.50
69031;DHT22;56083;48.774;8.942;2022-07-25T09:28:38;42.80;41.60
69031;DHT22;56083;48.774;8.942;2022-07-25T09:31:04;43.10;41.40
69031;DHT22;56083;48.774;8.942;2022-07-25T09:33:30;42.60;40.40
69031;DHT22;56083;48.774;8.942;2022-07-25T09:35:56;41.90;41.90
69031;DHT22;56083;48.774;8.942;2022-07-25T09:38:23;42.50;40.80
69031;DHT22;56083;48.774;8.942;2022-07-25T09:40:57;42.30;41.20
69031;DHT22;56083;48.774;8.942;2022-07-25T09:43:38;43.10;39.60
69031;DHT22;56083;48.774;8.942;2022-07-25T09:46:04;42.80;37.60
69031;DHT22;56083;48.774;8.942;2022-07-25T09:48:31;43.00;38.10
69031;DHT22;56083;48.774;8.942;2022-07-25T09:50:58;43.50;36.80
69031;DHT22;56083;48.774;8.942;2022-07-25T09:53:24;41.90;38.00
69031;DHT22;56083;48.774;8.942;2022-07-25T09:55:50;42.30;38.10
69031;DHT22;56083;48.774;8.942;2022-07-25T09:58:24;43.00;37.20
69031;DHT22;56083;48.774;8.942;2022-07-25T10:00:53;43.00;36.80
69031;DHT22;56083;48.774;8.942;2022-07-25T10:09:12;42.30;37.80
69031;DHT22;56083;48.774;8.942;2022-07-25T10:11:38;42.80;36.50
69031;DHT22;56083;48.774;8.942;2022-07-25T10:14:11;43.70;37.00
69031;DHT22;56083;48.774;8.942;2022-07-25T10:16:45;44.00;34.90
69031;DHT22;56083;48.774;8.942;2022-07-25T10:19:11;43.30;36.10
69031;DHT22;56083;48.774;8.942;2022-07-25T10:21:37;44.00;36.10
69031;DHT22;56083;48.774;8.942;2022-07-25T10:24:05;43.70;36.40
69031;DHT22;56083;48.774;8.942;2022-07-25T10:26:32;43.60;35.60
69031;DHT22;56083;48.774;8.942;2022-07-25T10:28:59;43.20;36.40
69031;DHT22;56083;48.774;8.942;2022-07-25T10:31:40;42.60;36.60
69031;DHT22;56083;48.774;8.942;2022-07-25T10:34:11;43.30;37.20
69031;DHT22;56083;48.774;8.942;2022-07-25T10:36:51;44.10;34.90
69031;DHT22;56083;48.774;8.942;2022-07-25T10:39:20;44.70;34.60
69031;DHT22;56083;48.774;8.942;2022-07-25T10:41:54;45.00;34.30
69031;DHT22;56083;48.774;8.942;2022-07-25T10:44:27;45.40;34.10
69031;DHT22;56083;48.774;8.942;2022-07-25T10:47:15;45.90;34.70
69031;DHT22;56083;48.774;8.942;2022-07-25T10:49:42;46.50;34.00
69031;DHT22;56083;48.774;8.942;2022-07-25T10:52:18;46.00;33.60
69031;DHT22;56083;48.774;8.942;2022-07-25T10:54:58;45.80;33.20
69031;DHT22;56083;48.774;8.942;2022-07-25T10:57:26;45.80;33.30
69031;DHT22;56083;48.774;8.942;2022-07-25T10:59:52;45.40;33.30
69031;DHT22;56083;48.774;8.942;2022-07-25T11:02:18;45.20;33.20
69031;DHT22;56083;48.774;8.942;2022-07-25T11:05:05;45.20;33.70
69031;DHT22;56083;48.774;8.942;2022-07-25T11:07:30;45.50;34.50
69031;DHT22;56083;48.774;8.942;2022-07-25T11:10:03;45.20;34.50
69031;DHT22;56083;48.774;8.942;2022-07-25T11:12:29;45.70;33.30
69031;DHT22;56083;48.774;8.942;2022-07-25T11:15:06;45.60;32.60
69031;DHT22;56083;48.774;8.942;2022-07-25T11:17:32;45.70;31.90
69031;DHT22;56083;48.774;8.942;2022-07-25T11:22:25;44.20;32.30
69031;DHT22;56083;48.774;8.942;2022-07-25T11:24:51;43.00;33.10
69031;DHT22;56083;48.774;8.942;2022-07-25T11:27:25;42.30;33.90
69031;DHT22;56083;48.774;8.942;2022-07-25T11:29:53;41.70;34.50
69031;DHT22;56083;48.774;8.942;2022-07-25T11:32:41;42.40;34.90
69031;DHT22;56083;48.774;8.942;2022-07-25T11:35:08;42.50;35.20
69031;DHT22;56083;48.774;8.942;2022-07-25T11:37:36;42.80;35.00
69031;DHT22;56083;48.774;8.942;2022-07-25T11:40:03;43.00;35.00
69031;DHT22;56083;48.774;8.942;2022-07-25T11:45:23;42.00;34.80
69031;DHT22;56083;48.774;8.942;2022-07-25T11:48:07;40.80;35.90
69031;DHT22;56083;48.774;8.942;2022-07-25T11:50:36;39.20;38.70
69031;DHT22;56083;48.774;8.942;2022-07-25T11:53:04;38.60;39.00
69031;DHT22;56083;48.774;8.942;2022-07-25T11:55:35;38.80;39.80
69031;DHT22;56083;48.774;8.942;2022-07-25T11:58:03;39.30;39.30
69031;DHT22;56083;48.774;8.942;2022-07-25T12:00:32;39.50;38.90
69031;DHT22;56083;48.774;8.942;2022-07-25T12:03:12;39.60;38.90
69031;DHT22;56083;48.774;8.942;2022-07-25T12:05:38;39.90;38.50
69031;DHT22;56083;48.774;8.942;2022-07-25T12:08:12;40.70;38.70
69031;DHT22;56083;48.774;8.942;2022-07-25T12:10:39;41.30;37.40
69031;DHT22;56083;48.774;8.942;2022-07-25T12:13:06;41.10;37.90
69031;DHT22;56083;48.774;8.942;2022-07-25T12:15:39;40.80;37.90
69031;DHT22;56083;48.774;8.942;2022-07-25T12:18:05;39.40;38.80
69031;DHT22;56083;48.774;8.942;2022-07-25T12:20:37;38.40;41.00
69031;DHT22;56083;48.774;8.942;2022-07-25T12:23:06;37.70;42.10
69031;DHT22;56083;48.774;8.942;2022-07-25T12:25:35;37.40;42.20
69031;DHT22;56083;48.774;8.942;2022-07-25T12:28:02;37.30;42.60
69031;DHT22;56083;48.774;8.942;2022-07-25T12:30:29;37.10;42.20
69031;DHT22;56083;48.774;8.942;2022-07-25T12:32:56;36.50;43.20
69031;DHT22;56083;48.774;8.942;2022-07-25T12:35:22;36.00;43.60
69031;DHT22;56083;48.774;8.942;2022-07-25T12:37:48;35.60;44.30
69031;DHT22;56083;48.774;8.942;2022-07-25T12:40:15;35.40;44.40
69031;DHT22;56083;48.774;8.942;2022-07-25T12:42:41;35.40;44.80
69031;DHT22;56083;48.774;8.942;2022-07-25T12:45:08;36.40;43.90
69031;DHT22;56083;48.774;8.942;2022-07-25T12:47:34;38.40;41.60
69031;DHT22;56083;48.774;8.942;2022-07-25T12:50:00;39.90;39.50
69031;DHT22;56083;48.774;8.942;2022-07-25T12:52:26;41.00;38.50
69031;DHT22;56083;48.774;8.942;2022-07-25T12:54:52;39.80;39.30
69031;DHT22;56083;48.774;8.942;2022-07-25T12:57:18;38.80;40.40
69031;DHT22;56083;48.774;8.942;2022-07-25T12:59:45;38.40;40.90
69031;DHT22;56083;48.774;8.942;2022-07-25T13:02:11;38.40;41.20
69031;DHT22;56083;48.774;8.942;2022-07-25T13:04:37;38.80;40.40
69031;DHT22;56083;48.774;8.942;2022-07-25T13:07:03;39.80;40.00
69031;DHT22;56083;48.774;8.942;2022-07-25T13:09:29;39.90;39.60
69031;DHT22;56083;48.774;8.942;2022-07-25T13:11:55;39.40;40.00
69031;DHT22;56083;48.774;8.942;2022-07-25T13:14:20;39.10;40.40
69031;DHT22;56083;48.774;8.942;2022-07-25T13:16:46;39.50;40.00
69031;DHT22;56083;48.774;8.942;2022-07-25T13:19:13;39.00;40.10
69031;DHT22;56083;48.774;8.942;2022-07-25T13:21:39;39.60;40.00
69031;DHT22;56083;48.774;8.942;2022-07-25T13:24:05;40.20;38.50
69031;DHT22;56083;48.774;8.942;2022-07-25T13:26:32;39.20;38.20
69031;DHT22;56083;48.774;8.942;2022-07-25T13:28:57;37.70;40.70
69031;DHT22;56083;48.774;8.942;2022-07-25T13:31:23;37.00;41.60
69031;DHT22;56083;48.774;8.942;2022-07-25T13:33:49;36.50;42.70
69031;DHT22;56083;48.774;8.942;2022-07-25T13:36:15;36.10;43.30
69031;DHT22;56083;48.774;8.942;2022-07-25T13:38:42;35.70;43.90
69031;DHT22;56083;48.774;8.942;2022-07-25T13:41:09;35.20;44.60
69031;DHT22;56083;48.774;8.942;2022-07-25T13:43:35;34.70;45.50
69031;DHT22;56083;48.774;8.942;2022-07-25T13:46:01;34.30;46.20
69031;DHT22;56083;48.774;8.942;2022-07-25T13:48:27;33.90;46.60
69031;DHT22;56083;48.774;8.942;2022-07-25T13:50:54;33.70;48.10
69031;DHT22;56083;48.774;8.942;2022-07-25T13:53:20;33.50;47.90
69031;DHT22;56083;48.774;8.942;2022-07-25T13:55:47;33.20;48.50
69031;DHT22;56083;48.774;8.942;2022-07-25T13:58:13;32.80;52.40
69031;DHT22;56083;48.774;8.942;2022-07-25T14:00:38;32.10;55.20
69031;DHT22;56083;48.774;8.942;2022-07-25T14:03:04;31.60;57.60
69031;DHT22;56083;48.774;8.942;2022-07-25T14:05:30;31.50;57.60
69031;DHT22;56083;48.774;8.942;2022-07-25T14:07:58;31.60;55.80
69031;DHT22;56083;48.774;8.942;2022-07-25T14:10:24;31.90;56.30
69031;DHT22;56083;48.774;8.942;2022-07-25T14:12:50;32.30;55.30
69031;DHT22;56083;48.774;8.942;2022-07-25T14:15:16;32.70;54.60
69031;DHT22;56083;48.774;8.942;2022-07-25T14:17:42;33.10;53.80
69031;DHT22;56083;48.774;8.942;2022-07-25T14:20:08;33.60;53.40
69031;DHT22;56083;48.774;8.942;2022-07-25T14:22:34;33.90;52.60
69031;DHT22;56083;48.774;8.942;2022-07-25T14:25:00;34.10;51.40
69031;DHT22;56083;48.774;8.942;2022-07-25T14:27:26;34.20;50.10
69031;DHT22;56083;48.774;8.942;2022-07-25T14:29:52;34.80;50.30
69031;DHT22;56083;48.774;8.942;2022-07-25T14:32:18;35.30;48.50
69031;DHT22;56083;48.774;8.942;2022-07-25T14:34:44;35.40;49.00
69031;DHT22;56083;48.774;8.942;2022-07-25T14:37:10;36.00;48.30
69031;DHT22;56083;48.774;8.942;2022-07-25T14:39:36;35.70;48.10
69031;DHT22;56083;48.774;8.942;2022-07-25T14:42:02;35.30;48.30
69031;DHT22;56083;48.774;8.942;2022-07-25T14:44:29;34.60;49.60
69031;DHT22;56083;48.774;8.942;2022-07-25T14:46:55;34.20;50.20
69031;DHT22;56083;48.774;8.942;2022-07-25T14:49:21;34.00;51.10
69031;DHT22;56083;48.774;8.942;2022-07-25T14:51:47;33.80;51.20
69031;DHT22;56083;48.774;8.942;2022-07-25T14:54:13;33.70;51.30
69031;DHT22;56083;48.774;8.942;2022-07-25T14:56:39;33.90;51.30
69031;DHT22;56083;48.774;8.942;2022-07-25T14:59:05;34.40;50.80
69031;DHT22;56083;48.774;8.942;2022-07-25T15:01:31;34.50;51.00
69031;DHT22;56083;48.774;8.942;2022-07-25T15:03:57;34.60;50.80
69031;DHT22;56083;48.774;8.942;2022-07-25T15:06:23;34.50;51.40
69031;DHT22;56083;48.774;8.942;2022-07-25T15:08:49;34.00;51.50
69031;DHT22;56083;48.774;8.942;2022-07-25T15:11:17;33.70;52.30
69031;DHT22;56083;48.774;8.942;2022-07-25T15:13:42;33.30;52.90
69031;DHT22;56083;48.774;8.942;2022-07-25T15:16:08;33.20;53.30
69031;DHT22;56083;48.774;8.942;2022-07-25T15:18:34;33.10;54.60
69031;DHT22;56083;48.774;8.942;2022-07-25T15:21:00;33.00;56.70
69031;DHT22;56083;48.774;8.942;2022-07-25T15:23:26;33.60;56.70
69031;DHT22;56083;48.774;8.942;2022-07-25T15:25:53;34.40;56.60
69031;DHT22;56083;48.774;8.942;2022-07-25T15:28:19;34.40;55.60
69031;DHT22;56083;48.774;8.942;2022-07-25T15:30:45;33.90;56.10
69031;DHT22;56083;48.774;8.942;2022-07-25T15:33:12;34.00;55.90
69031;DHT22;56083;48.774;8.942;2022-07-25T15:35:38;35.00;54.80
69031;DHT22;56083;48.774;8.942;2022-07-25T15:38:04;35.30;53.70
69031;DHT22;56083;48.774;8.942;2022-07-25T15:40:30;34.20;54.40
69031;DHT22;56083;48.774;8.942;2022-07-25T15:42:57;33.30;55.80